createdAt,value
2018-12-26T00:00:43.035Z,101766.82
2018-12-26T00:01:49.003Z,101764.68
2018-12-26T00:02:54.928Z,101760.77
2018-12-26T00:04:00.850Z,101756.39
2018-12-26T00:05:06.420Z,101762.48
2018-12-26T00:06:12.222Z,101759.89
2018-12-26T00:07:18.207Z,101759.03
2018-12-26T00:08:23.751Z,101758.57
2018-12-26T00:09:29.657Z,101755.13
2018-12-26T00:10:35.607Z,101756.88
2018-12-26T00:11:41.560Z,101754.72
2018-12-26T00:12:47.491Z,101754.25
2018-12-26T00:13:53.383Z,101753.39
2018-12-26T00:14:59.338Z,101755.98
2018-12-26T00:16:05.318Z,101753.82
2018-12-26T00:17:11.266Z,101755.12
2018-12-26T00:18:17.251Z,101753.38
2018-12-26T00:19:23.428Z,101745.58
2018-12-26T00:20:29.348Z,101746.02
2018-12-26T00:21:35.422Z,101748.62
2018-12-26T00:22:42.096Z,101747.75
2018-12-26T00:23:47.981Z,101750.80
2018-12-26T00:24:53.915Z,101742.55
2018-12-26T00:26:01.762Z,101745.56
2018-12-26T00:27:05.833Z,101743.83
2018-12-26T00:28:11.795Z,101748.63
2018-12-26T00:29:17.712Z,101739.52
2018-12-26T00:30:23.645Z,101739.52
2018-12-26T00:31:29.585Z,101742.09
2018-12-26T00:32:35.524Z,101752.94
2018-12-26T00:33:41.497Z,101746.02
2018-12-26T00:34:47.430Z,101748.20
2018-12-26T00:35:53.352Z,101749.91
2018-12-26T00:36:59.303Z,101750.34
2018-12-26T00:38:05.292Z,101757.29
2018-12-26T00:39:11.253Z,101755.99
2018-12-26T00:40:17.215Z,101756.01
2018-12-26T00:41:23.181Z,101755.55
2018-12-26T00:42:29.140Z,101752.08
2018-12-26T00:43:35.139Z,101754.26
2018-12-26T00:44:41.055Z,101749.06
2018-12-26T00:45:47.008Z,101752.10
2018-12-26T00:46:52.962Z,101751.23
2018-12-26T00:47:58.958Z,101749.05
2018-12-26T00:49:04.903Z,101751.66
2018-12-26T00:50:10.889Z,101751.66
2018-12-26T00:51:16.827Z,101756.00
2018-12-26T00:52:22.869Z,101742.98
2018-12-26T00:53:28.810Z,101749.03
2018-12-26T00:54:34.794Z,101747.33
2018-12-26T00:55:40.742Z,101744.70
2018-12-26T00:56:46.671Z,101742.98
2018-12-26T00:57:52.607Z,101743.84
2018-12-26T00:58:58.562Z,101743.84
2018-12-26T01:00:03.879Z,101739.95
2018-12-26T01:01:09.590Z,101741.70
2018-12-26T01:02:15.501Z,101739.07
2018-12-26T01:03:21.494Z,101738.66
2018-12-26T01:04:27.465Z,101732.14
2018-12-26T01:05:33.417Z,101731.28
2018-12-26T01:06:39.384Z,101730.41
2018-12-26T01:07:45.363Z,101726.09
2018-12-26T01:08:51.290Z,101728.25
2018-12-26T01:09:57.223Z,101725.17
2018-12-26T01:11:03.216Z,101724.77
2018-12-26T01:12:09.183Z,101724.77
2018-12-26T01:13:15.155Z,101732.14
2018-12-26T01:14:21.089Z,101728.23
2018-12-26T01:15:27.039Z,101726.94
2018-12-26T01:16:33.028Z,101723.45
2018-12-26T01:17:39.129Z,101723.05
2018-12-26T01:18:45.128Z,101729.09
2018-12-26T01:19:51.109Z,101721.31
2018-12-26T01:20:57.056Z,101725.61
2018-12-26T01:22:03.016Z,101725.63
2018-12-26T01:23:08.928Z,101723.47
2018-12-26T01:24:14.830Z,101723.46
2018-12-26T01:25:21.347Z,101729.10
2018-12-26T01:26:27.455Z,101727.39
2018-12-26T01:27:33.428Z,101730.84
2018-12-26T01:28:39.561Z,101735.61
2018-12-26T01:29:45.462Z,101726.05
2018-12-26T01:30:51.423Z,101740.39
2018-12-26T01:31:57.369Z,101736.91
2018-12-26T01:33:03.341Z,101730.84
2018-12-26T01:34:09.285Z,101734.30
2018-12-26T01:35:15.231Z,101739.51
2018-12-26T01:36:21.173Z,101740.38
2018-12-26T01:37:27.121Z,101745.14
2018-12-26T01:38:33.065Z,101740.41
2018-12-26T01:39:38.969Z,101739.95
2018-12-26T01:40:44.948Z,101744.73
2018-12-26T01:41:50.900Z,101739.52
2018-12-26T01:42:56.879Z,101741.67
2018-12-26T01:44:03.844Z,101739.10
2018-12-26T01:45:09.843Z,101745.59
2018-12-26T01:46:15.792Z,101739.52
2018-12-26T01:47:21.702Z,101743.00
2018-12-26T01:48:27.747Z,101750.38
2018-12-26T01:49:33.641Z,101744.73
2018-12-26T01:50:39.585Z,101745.61
2018-12-26T01:51:45.521Z,101749.94
2018-12-26T01:52:51.506Z,101748.19
2018-12-26T01:53:57.473Z,101745.59
2018-12-26T01:55:03.151Z,101749.48
2018-12-26T01:56:09.078Z,101751.67
2018-12-26T01:57:15.025Z,101749.08
2018-12-26T01:58:20.720Z,101758.61
2018-12-26T01:59:26.627Z,101759.04
2018-12-26T02:00:32.573Z,101763.80
2018-12-26T02:01:37.470Z,101762.06
2018-12-26T02:02:42.394Z,101764.23
2018-12-26T02:03:48.214Z,101764.67
2018-12-26T02:04:54.212Z,101762.94
2018-12-26T02:06:00.185Z,101756.44
2018-12-26T02:07:06.124Z,101759.03
2018-12-26T02:08:12.075Z,101760.77
2018-12-26T02:09:18.063Z,101759.05
2018-12-26T02:10:23.967Z,101753.40
2018-12-26T02:11:29.895Z,101756.00
2018-12-26T02:12:35.882Z,101759.91
2018-12-26T02:13:41.838Z,101751.66
2018-12-26T02:14:47.821Z,101750.78
2018-12-26T02:15:53.801Z,101756.02
2018-12-26T02:16:59.725Z,101752.55
2018-12-26T02:18:05.689Z,101752.96
2018-12-26T02:19:11.652Z,101748.63
2018-12-26T02:20:17.238Z,101754.70
2018-12-26T02:21:22.520Z,101756.85
2018-12-26T02:22:28.512Z,101757.30
2018-12-26T02:23:34.485Z,101759.47
2018-12-26T02:24:40.469Z,101755.56
2018-12-26T02:25:46.508Z,101758.17
2018-12-26T02:26:52.476Z,101759.45
2018-12-26T02:27:58.392Z,101755.13
2018-12-26T02:29:04.016Z,101758.59
2018-12-26T02:30:09.384Z,101757.75
2018-12-26T02:31:15.348Z,101755.99
2018-12-26T02:32:21.240Z,101758.17
2018-12-26T02:33:27.194Z,101757.28
2018-12-26T02:34:33.097Z,101755.13
2018-12-26T02:35:39.206Z,101750.35
2018-12-26T02:36:45.135Z,101752.08
2018-12-26T02:37:51.038Z,101746.02
2018-12-26T02:38:56.975Z,101742.98
2018-12-26T02:40:02.846Z,101743.41
2018-12-26T02:41:08.773Z,101750.36
2018-12-26T02:42:14.726Z,101749.50
2018-12-26T02:43:20.769Z,101749.92
2018-12-26T02:44:26.705Z,101752.53
2018-12-26T02:45:32.680Z,101748.17
2018-12-26T02:46:38.646Z,101749.48
2018-12-26T02:47:44.614Z,101754.68
2018-12-26T02:48:50.547Z,101762.94
2018-12-26T02:49:56.482Z,101760.33
2018-12-26T02:51:02.077Z,101757.74
2018-12-26T02:52:08.042Z,101759.45
2018-12-26T02:53:14.026Z,101769.00
2018-12-26T02:54:20.115Z,101766.85
2018-12-26T02:55:25.996Z,101766.83
2018-12-26T02:56:31.956Z,101767.70
2018-12-26T02:57:37.860Z,101771.18
2018-12-26T02:58:43.802Z,101767.70
2018-12-26T02:59:49.697Z,101771.59
2018-12-26T03:00:55.603Z,101771.12
2018-12-26T03:02:01.555Z,101768.54
2018-12-26T03:03:07.474Z,101768.55
2018-12-26T03:04:13.396Z,101761.63
2018-12-26T03:05:19.021Z,101755.53
2018-12-26T03:06:24.949Z,101752.52
2018-12-26T03:07:30.937Z,101749.49
2018-12-26T03:08:36.927Z,101746.47
2018-12-26T03:09:42.840Z,101741.69
2018-12-26T03:10:48.807Z,101745.14
2018-12-26T03:11:54.748Z,101739.52
2018-12-26T03:13:00.681Z,101746.91
2018-12-26T03:14:06.661Z,101751.23
2018-12-26T03:15:13.069Z,101756.00
2018-12-26T03:16:19.000Z,101755.53
2018-12-26T03:17:24.922Z,101745.55
2018-12-26T03:18:30.501Z,101735.57
2018-12-26T03:19:36.471Z,101728.23
2018-12-26T03:20:42.448Z,101725.63
2018-12-26T03:21:48.457Z,101716.95
2018-12-26T03:22:54.408Z,101724.75
2018-12-26T03:24:00.360Z,101726.94
2018-12-26T03:25:05.711Z,101725.62
2018-12-26T03:26:11.580Z,101729.52
2018-12-26T03:27:17.532Z,101727.36
2018-12-26T03:28:23.520Z,101725.63
2018-12-26T03:29:29.477Z,101727.34
2018-12-26T03:30:35.393Z,101727.77
2018-12-26T03:31:41.317Z,101731.27
2018-12-26T03:32:47.272Z,101725.16
2018-12-26T03:33:53.227Z,101726.86
2018-12-26T03:34:59.228Z,101739.05
2018-12-26T03:36:05.178Z,101746.83
2018-12-26T03:37:10.786Z,101739.45
2018-12-26T03:38:16.331Z,101735.58
2018-12-26T03:39:21.935Z,101752.05
2018-12-26T03:40:27.163Z,101738.16
2018-12-26T03:41:32.721Z,101743.36
2018-12-26T03:42:37.986Z,101745.12
2018-12-26T03:43:43.221Z,101744.23
2018-12-26T03:44:48.510Z,101745.95
2018-12-26T03:45:53.809Z,101736.87
2018-12-26T03:46:59.030Z,101726.89
2018-12-26T03:48:04.305Z,101726.48
2018-12-26T03:49:09.910Z,101726.05
2018-12-26T03:50:15.823Z,101718.25
2018-12-26T03:51:21.069Z,101717.80
2018-12-26T03:52:26.675Z,101706.06
2018-12-26T03:53:32.623Z,101709.50
2018-12-26T03:54:38.717Z,101711.66
2018-12-26T03:55:44.271Z,101719.95
2018-12-26T03:56:49.868Z,101716.50
2018-12-26T03:57:55.464Z,101716.02
2018-12-26T03:59:01.386Z,101709.98
2018-12-26T04:00:06.706Z,101719.97
2018-12-26T04:01:12.656Z,101713.45
2018-12-26T04:02:18.574Z,101713.05
2018-12-26T04:03:24.204Z,101718.67
2018-12-26T04:04:29.842Z,101709.13
2018-12-26T04:05:35.802Z,101713.47
2018-12-26T04:06:41.063Z,101711.70
2018-12-26T04:07:46.272Z,101699.16
2018-12-26T04:08:52.212Z,101699.59
2018-12-26T04:09:59.317Z,101699.19
2018-12-26T04:11:04.915Z,101689.64
2018-12-26T04:12:10.836Z,101696.14
2018-12-26T04:13:16.768Z,101698.72
2018-12-26T04:14:22.002Z,101691.33
2018-12-26T04:15:27.957Z,101696.55
2018-12-26T04:16:33.930Z,101698.72
2018-12-26T04:17:40.040Z,101700.48
2018-12-26T04:18:46.296Z,101696.99
2018-12-26T04:19:51.728Z,101699.58
2018-12-26T04:20:57.698Z,101706.49
2018-12-26T04:22:04.184Z,101715.17
2018-12-26T04:23:11.907Z,101715.98
2018-12-26T04:24:17.629Z,101716.41
2018-12-26T04:25:22.931Z,101721.15
2018-12-26T04:26:28.868Z,101720.69
2018-12-26T04:27:34.802Z,101725.47
2018-12-26T04:28:40.750Z,101719.02
2018-12-26T04:29:46.017Z,101720.77
2018-12-26T04:30:52.004Z,101720.80
2018-12-26T04:31:57.932Z,101732.05
2018-12-26T04:33:03.909Z,101723.35
2018-12-26T04:34:09.922Z,101709.95
2018-12-26T04:35:15.961Z,101714.27
2018-12-26T04:36:21.954Z,101712.93
2018-12-26T04:37:27.916Z,101719.41
2018-12-26T04:38:33.982Z,101714.27
2018-12-26T04:39:40.091Z,101719.00
2018-12-26T04:40:46.340Z,101716.88
2018-12-26T04:41:52.439Z,101709.94
2018-12-26T04:42:58.468Z,101707.78
2018-12-26T04:44:04.500Z,101702.16
2018-12-26T04:45:10.471Z,101693.91
2018-12-26T04:46:16.446Z,101691.77
2018-12-26T04:47:22.376Z,101688.70
2018-12-26T04:48:29.103Z,101690.89
2018-12-26T04:49:35.094Z,101694.80
2018-12-26T04:50:41.119Z,101700.41
2018-12-26T04:51:47.049Z,101693.89
2018-12-26T04:52:53.064Z,101692.61
2018-12-26T04:53:59.006Z,101697.38
2018-12-26T04:55:04.646Z,101690.87
2018-12-26T04:56:10.356Z,101699.13
2018-12-26T04:57:24.642Z,101696.48
2018-12-26T04:58:23.192Z,101691.28
2018-12-26T04:59:29.113Z,101692.62
2018-12-26T05:00:35.718Z,101699.94
2018-12-26T05:01:42.241Z,101693.39
2018-12-26T05:02:48.281Z,101688.22
2018-12-26T05:03:55.229Z,101693.02
2018-12-26T05:05:01.664Z,101690.03
2018-12-26T05:06:08.210Z,101693.52
2018-12-26T05:07:14.127Z,101689.55
2018-12-26T05:08:20.064Z,101694.77
2018-12-26T05:09:26.529Z,101701.19
2018-12-26T05:10:32.893Z,101695.17
2018-12-26T05:11:38.784Z,101699.99
2018-12-26T05:12:46.516Z,101707.38
2018-12-26T05:13:53.735Z,101707.78
2018-12-26T05:14:59.533Z,101705.16
2018-12-26T05:16:06.184Z,101702.48
2018-12-26T05:17:12.036Z,101712.85
2018-12-26T05:18:18.249Z,101706.38
2018-12-26T05:19:23.898Z,101709.84
2018-12-26T05:20:29.878Z,101705.14
2018-12-26T05:21:35.985Z,101705.17
2018-12-26T05:22:42.460Z,101709.50
2018-12-26T05:23:48.973Z,101702.59
2018-12-26T05:24:56.868Z,101706.94
2018-12-26T05:26:02.561Z,101707.80
2018-12-26T05:27:07.789Z,101705.64
2018-12-26T05:28:14.025Z,101695.25
2018-12-26T05:29:20.023Z,101695.68
2018-12-26T05:30:25.992Z,101695.22
2018-12-26T05:31:33.461Z,101693.92
2018-12-26T05:32:41.032Z,101693.92
2018-12-26T05:33:47.209Z,101691.77
2018-12-26T05:34:53.598Z,101696.55
2018-12-26T05:35:59.760Z,101700.87
2018-12-26T05:37:06.187Z,101700.43
2018-12-26T05:38:12.128Z,101694.36
2018-12-26T05:39:18.442Z,101696.97
2018-12-26T05:40:26.876Z,101696.12
2018-12-26T05:41:33.664Z,101699.09
2018-12-26T05:42:42.352Z,101691.33
2018-12-26T05:43:48.417Z,101696.53
2018-12-26T05:44:54.958Z,101697.83
2018-12-26T05:46:01.575Z,101696.09
2018-12-26T05:47:09.078Z,101691.33
2018-12-26T05:48:15.481Z,101686.15
2018-12-26T05:49:21.421Z,101691.34
2018-12-26T05:50:27.050Z,101686.12
2018-12-26T05:51:32.980Z,101683.53
2018-12-26T05:52:38.926Z,101683.52
2018-12-26T05:53:45.480Z,101684.81
2018-12-26T05:54:51.529Z,101685.29
2018-12-26T05:55:57.478Z,101680.91
2018-12-26T05:57:03.559Z,101686.53
2018-12-26T05:58:09.591Z,101686.11
2018-12-26T05:59:16.145Z,101672.27
2018-12-26T06:00:22.427Z,101679.64
2018-12-26T06:01:28.880Z,101671.84
2018-12-26T06:02:34.853Z,101678.78
2018-12-26T06:03:41.204Z,101683.14
2018-12-26T06:04:47.464Z,101681.80
2018-12-26T06:05:53.383Z,101684.42
2018-12-26T06:06:59.369Z,101686.11
2018-12-26T06:08:05.350Z,101680.93
2018-12-26T06:09:11.354Z,101690.84
2018-12-26T06:10:17.302Z,101685.22
2018-12-26T06:11:23.197Z,101684.81
2018-12-26T06:12:29.122Z,101680.03
2018-12-26T06:13:35.038Z,101681.37
2018-12-26T06:14:41.147Z,101680.91
2018-12-26T06:15:47.057Z,101680.45
2018-12-26T06:16:52.984Z,101688.69
2018-12-26T06:17:59.108Z,101690.44
2018-12-26T06:19:05.059Z,101686.05
2018-12-26T06:20:11.607Z,101683.91
2018-12-26T06:21:17.589Z,101683.47
2018-12-26T06:22:23.701Z,101684.39
2018-12-26T06:23:29.619Z,101691.74
2018-12-26T06:24:36.323Z,101685.71
2018-12-26T06:25:43.861Z,101682.24
2018-12-26T06:26:50.347Z,101687.83
2018-12-26T06:27:56.320Z,101686.55
2018-12-26T06:29:02.405Z,101683.09
2018-12-26T06:30:09.309Z,101682.21
2018-12-26T06:31:15.263Z,101683.94
2018-12-26T06:32:21.372Z,101686.57
2018-12-26T06:33:27.306Z,101679.66
2018-12-26T06:34:34.527Z,101678.31
2018-12-26T06:35:41.023Z,101681.77
2018-12-26T06:36:46.984Z,101680.45
2018-12-26T06:37:53.927Z,101681.78
2018-12-26T06:38:59.890Z,101683.91
2018-12-26T06:40:05.734Z,101683.08
2018-12-26T06:41:13.098Z,101686.94
2018-12-26T06:42:19.045Z,101683.06
2018-12-26T06:43:25.571Z,101683.08
2018-12-26T06:44:32.702Z,101678.24
2018-12-26T06:45:38.084Z,101688.23
2018-12-26T06:46:44.693Z,101690.00
2018-12-26T06:47:51.112Z,101686.48
2018-12-26T06:48:57.084Z,101694.77
2018-12-26T06:50:04.123Z,101694.70
2018-12-26T06:51:11.301Z,101692.50
2018-12-26T06:52:17.236Z,101690.33
2018-12-26T06:53:23.856Z,101684.35
2018-12-26T06:54:29.826Z,101688.19
2018-12-26T06:55:36.333Z,101694.25
2018-12-26T06:56:42.348Z,101687.77
2018-12-26T06:57:48.867Z,101693.41
2018-12-26T06:58:54.851Z,101689.94
2018-12-26T07:00:02.086Z,101696.00
2018-12-26T07:01:08.009Z,101693.40
2018-12-26T07:02:13.932Z,101693.40
2018-12-26T07:03:19.894Z,101693.83
2018-12-26T07:04:26.015Z,101689.08
2018-12-26T07:05:31.979Z,101687.33
2018-12-26T07:06:37.936Z,101686.86
2018-12-26T07:07:43.971Z,101682.97
2018-12-26T07:08:49.923Z,101684.28
2018-12-26T07:09:55.892Z,101682.12
2018-12-26T07:11:01.843Z,101685.97
2018-12-26T07:12:07.830Z,101688.16
2018-12-26T07:13:13.766Z,101682.52
2018-12-26T07:14:20.075Z,101683.02
2018-12-26T07:15:26.613Z,101684.30
2018-12-26T07:16:32.565Z,101679.95
2018-12-26T07:17:39.845Z,101679.07
2018-12-26T07:18:46.087Z,101670.86
2018-12-26T07:19:52.653Z,101673.47
2018-12-26T07:20:58.684Z,101673.91
2018-12-26T07:22:04.653Z,101681.64
2018-12-26T07:23:10.613Z,101677.72
2018-12-26T07:24:16.536Z,101681.17
2018-12-26T07:25:22.488Z,101677.70
2018-12-26T07:26:28.736Z,101676.45
2018-12-26T07:27:35.216Z,101669.95
2018-12-26T07:28:41.708Z,101675.13
2018-12-26T07:29:48.068Z,101673.80
2018-12-26T07:30:54.859Z,101681.58
2018-12-26T07:32:01.636Z,101677.63
2018-12-26T07:33:08.929Z,101676.83
2018-12-26T07:34:14.904Z,101676.43
2018-12-26T07:35:21.429Z,101677.73
2018-12-26T07:36:27.801Z,101681.16
2018-12-26T07:37:35.584Z,101680.70
2018-12-26T07:38:41.545Z,101675.49
2018-12-26T07:39:47.465Z,101680.30
2018-12-26T07:40:53.869Z,101679.42
2018-12-26T07:42:00.684Z,101672.45
2018-12-26T07:43:08.440Z,101675.48
2018-12-26T07:44:14.979Z,101671.53
2018-12-26T07:45:21.148Z,101672.00
2018-12-26T07:46:27.047Z,101677.23
2018-12-26T07:47:32.964Z,101684.19
2018-12-26T07:48:38.961Z,101681.03
2018-12-26T07:49:44.936Z,101682.41
2018-12-26T07:50:50.934Z,101683.22
2018-12-26T07:51:56.898Z,101688.45
2018-12-26T07:53:02.808Z,101681.92
2018-12-26T07:54:08.743Z,101683.20
2018-12-26T07:55:14.406Z,101691.91
2018-12-26T07:56:20.425Z,101687.63
2018-12-26T07:57:26.375Z,101678.99
2018-12-26T07:58:32.357Z,101683.75
2018-12-26T07:59:38.301Z,101681.23
2018-12-26T08:00:44.268Z,101683.33
2018-12-26T08:01:49.832Z,101682.48
2018-12-26T08:02:55.779Z,101681.65
2018-12-26T08:04:01.770Z,101678.97
2018-12-26T08:05:07.745Z,101683.29
2018-12-26T08:06:13.785Z,101683.73
2018-12-26T08:07:19.709Z,101682.38
2018-12-26T08:08:25.672Z,101688.88
2018-12-26T08:09:31.589Z,101685.48
2018-12-26T08:10:37.489Z,101682.03
2018-12-26T08:11:43.450Z,101683.77
2018-12-26T08:12:49.360Z,101682.52
2018-12-26T08:13:55.301Z,101686.84
2018-12-26T08:15:10.173Z,101682.88
2018-12-26T08:16:07.300Z,101676.41
2018-12-26T08:17:13.254Z,101679.87
2018-12-26T08:18:19.233Z,101679.38
2018-12-26T08:19:25.231Z,101679.83
2018-12-26T08:20:31.227Z,101687.61
2018-12-26T08:21:36.860Z,101682.43
2018-12-26T08:22:42.845Z,101682.90
2018-12-26T08:23:48.775Z,101676.45
2018-12-26T08:24:54.376Z,101686.41
2018-12-26T08:26:00.282Z,101681.19
2018-12-26T08:27:06.247Z,101677.25
2018-12-26T08:28:12.181Z,101682.42
2018-12-26T08:29:18.133Z,101682.87
2018-12-26T08:30:24.054Z,101680.33
2018-12-26T08:31:30.000Z,101683.80
2018-12-26T08:32:35.918Z,101681.99
2018-12-26T08:33:41.871Z,101686.27
2018-12-26T08:34:48.558Z,101685.03
2018-12-26T08:35:54.905Z,101683.29
2018-12-26T08:37:00.832Z,101689.28
2018-12-26T08:38:06.964Z,101685.83
2018-12-26T08:39:13.445Z,101694.54
2018-12-26T08:40:20.936Z,101696.28
2018-12-26T08:41:27.450Z,101693.30
2018-12-26T08:42:34.631Z,101693.75
2018-12-26T08:43:41.059Z,101691.61
2018-12-26T08:44:48.012Z,101695.91
2018-12-26T08:45:53.954Z,101693.77
2018-12-26T08:47:00.379Z,101691.96
2018-12-26T08:48:09.016Z,101691.47
2018-12-26T08:49:16.006Z,101694.95
2018-12-26T08:50:22.618Z,101685.03
2018-12-26T08:51:29.104Z,101682.44
2018-12-26T08:52:35.564Z,101690.25
2018-12-26T08:53:42.037Z,101685.50
2018-12-26T08:54:49.384Z,101686.39
2018-12-26T08:55:55.880Z,101683.34
2018-12-26T08:57:01.856Z,101685.09
2018-12-26T08:58:08.123Z,101686.38
2018-12-26T08:59:15.144Z,101684.59
2018-12-26T09:00:22.768Z,101693.30
2018-12-26T09:01:29.918Z,101686.84
2018-12-26T09:02:37.809Z,101692.03
2018-12-26T09:03:44.461Z,101689.43
2018-12-26T09:04:53.072Z,101685.09
2018-12-26T09:06:00.223Z,101691.14
2018-12-26T09:07:06.918Z,101682.90
2018-12-26T09:08:13.379Z,101679.80
2018-12-26T09:09:19.448Z,101686.32
2018-12-26T09:10:27.991Z,101684.16
2018-12-26T09:11:32.301Z,101687.20
2018-12-26T09:12:38.903Z,101679.91
2018-12-26T09:13:44.995Z,101682.97
2018-12-26T09:14:51.213Z,101689.88
2018-12-26T09:15:57.315Z,101686.80
2018-12-26T09:17:03.446Z,101679.44
2018-12-26T09:18:09.683Z,101683.80
2018-12-26T09:19:16.178Z,101686.37
2018-12-26T09:20:22.512Z,101679.45
2018-12-26T09:21:28.867Z,101688.08
2018-12-26T09:22:35.075Z,101679.43
2018-12-26T09:23:42.645Z,101678.98
2018-12-26T09:24:48.971Z,101683.33
2018-12-26T09:25:54.575Z,101685.02
2018-12-26T09:27:02.547Z,101683.27
2018-12-26T09:28:08.593Z,101677.22
2018-12-26T09:29:15.028Z,101687.58
2018-12-26T09:30:20.894Z,101685.47
2018-12-26T09:31:26.860Z,101683.30
2018-12-26T09:32:33.584Z,101683.72
2018-12-26T09:33:40.783Z,101682.47
2018-12-26T09:34:47.759Z,101682.92
2018-12-26T09:35:53.738Z,101686.77
2018-12-26T09:36:59.734Z,101685.45
2018-12-26T09:38:05.696Z,101694.16
2018-12-26T09:39:11.709Z,101687.98
2018-12-26T09:40:17.687Z,101691.05
2018-12-26T09:41:23.724Z,101685.48
2018-12-26T09:42:29.702Z,101684.63
2018-12-26T09:43:35.659Z,101682.43
2018-12-26T09:44:41.702Z,101678.06
2018-12-26T09:45:47.654Z,101683.68
2018-12-26T09:46:53.624Z,101678.56
2018-12-26T09:47:59.620Z,101676.86
2018-12-26T09:49:05.614Z,101683.33
2018-12-26T09:50:11.597Z,101680.66
2018-12-26T09:51:17.208Z,101678.94
2018-12-26T09:52:23.176Z,101672.02
2018-12-26T09:53:29.067Z,101677.67
2018-12-26T09:54:35.049Z,101676.39
2018-12-26T09:55:41.035Z,101674.23
2018-12-26T09:56:47.004Z,101670.28
2018-12-26T09:57:53.078Z,101677.14
2018-12-26T09:58:59.027Z,101668.56
2018-12-26T10:00:04.329Z,101671.16
2018-12-26T10:01:10.266Z,101667.29
2018-12-26T10:02:16.218Z,101666.02
2018-12-26T10:03:22.242Z,101664.26
2018-12-26T10:04:28.214Z,101663.45
2018-12-26T10:05:34.331Z,101669.52
2018-12-26T10:06:40.287Z,101661.67
2018-12-26T10:07:46.248Z,101665.59
2018-12-26T10:08:52.215Z,101667.35
2018-12-26T10:09:58.181Z,101663.02
2018-12-26T10:11:04.173Z,101666.41
2018-12-26T10:12:10.151Z,101663.36
2018-12-26T10:13:16.162Z,101662.48
2018-12-26T10:14:22.171Z,101665.16
2018-12-26T10:15:28.168Z,101664.64
2018-12-26T10:16:34.120Z,101656.80
2018-12-26T10:17:40.072Z,101667.19
2018-12-26T10:18:46.024Z,101665.42
2018-12-26T10:19:52.088Z,101662.87
2018-12-26T10:20:58.227Z,101662.50
2018-12-26T10:22:04.189Z,101665.09
2018-12-26T10:23:10.161Z,101664.72
2018-12-26T10:24:16.153Z,101659.95
2018-12-26T10:25:22.156Z,101662.55
2018-12-26T10:26:28.216Z,101660.42
2018-12-26T10:27:34.188Z,101668.23
2018-12-26T10:28:40.166Z,101667.31
2018-12-26T10:29:46.175Z,101662.08
2018-12-26T10:30:52.150Z,101663.81
2018-12-26T10:31:58.116Z,101667.30
2018-12-26T10:33:04.736Z,101668.61
2018-12-26T10:34:10.775Z,101662.88
2018-12-26T10:35:16.769Z,101666.89
2018-12-26T10:36:22.739Z,101667.31
2018-12-26T10:37:28.712Z,101669.52
2018-12-26T10:38:34.653Z,101665.58
2018-12-26T10:39:40.708Z,101668.17
2018-12-26T10:40:46.704Z,101670.31
2018-12-26T10:41:52.663Z,101668.16
2018-12-26T10:42:58.704Z,101669.46
2018-12-26T10:44:04.281Z,101666.02
2018-12-26T10:45:10.208Z,101669.38
2018-12-26T10:46:16.214Z,101664.09
2018-12-26T10:47:22.242Z,101668.88
2018-12-26T10:48:28.688Z,101668.42
2018-12-26T10:49:34.593Z,101661.97
2018-12-26T10:50:40.525Z,101660.67
2018-12-26T10:51:46.552Z,101662.47
2018-12-26T10:52:52.546Z,101655.97
2018-12-26T10:53:58.481Z,101660.33
2018-12-26T10:55:03.770Z,101657.30
2018-12-26T10:56:09.673Z,101661.18
2018-12-26T10:57:15.641Z,101657.67
2018-12-26T10:58:20.888Z,101655.93
2018-12-26T10:59:26.817Z,101659.88
2018-12-26T11:00:32.771Z,101652.56
2018-12-26T11:01:38.754Z,101654.69
2018-12-26T11:02:44.758Z,101649.86
2018-12-26T11:03:50.733Z,101651.19
2018-12-26T11:04:56.433Z,101653.27
2018-12-26T11:06:02.335Z,101648.13
2018-12-26T11:07:08.332Z,101652.47
2018-12-26T11:08:14.320Z,101650.26
2018-12-26T11:09:20.289Z,101644.20
2018-12-26T11:10:26.226Z,101642.53
2018-12-26T11:11:32.202Z,101645.10
2018-12-26T11:12:38.173Z,101641.21
2018-12-26T11:13:44.133Z,101642.16
2018-12-26T11:14:50.061Z,101635.17
2018-12-26T11:15:55.665Z,101641.73
2018-12-26T11:17:01.606Z,101634.82
2018-12-26T11:18:07.644Z,101639.20
2018-12-26T11:19:13.266Z,101638.22
2018-12-26T11:20:19.190Z,101637.37
2018-12-26T11:21:25.249Z,101631.34
2018-12-26T11:22:31.206Z,101633.98
2018-12-26T11:23:37.189Z,101631.78
2018-12-26T11:24:43.176Z,101630.05
2018-12-26T11:25:49.136Z,101628.72
2018-12-26T11:26:55.066Z,101629.59
2018-12-26T11:28:01.074Z,101625.20
2018-12-26T11:29:07.127Z,101624.36
2018-12-26T11:30:12.798Z,101626.59
2018-12-26T11:31:18.757Z,101621.73
2018-12-26T11:32:24.811Z,101625.25
2018-12-26T11:33:30.810Z,101630.03
2018-12-26T11:34:36.782Z,101620.11
2018-12-26T11:35:43.631Z,101621.45
2018-12-26T11:36:48.908Z,101614.92
2018-12-26T11:37:54.143Z,101618.86
2018-12-26T11:39:00.147Z,101610.66
2018-12-26T11:40:05.486Z,101618.85
2018-12-26T11:41:11.257Z,101618.41
2018-12-26T11:42:16.875Z,101607.55
2018-12-26T11:43:22.858Z,101609.72
2018-12-26T11:44:28.786Z,101613.15
2018-12-26T11:45:34.775Z,101613.16
2018-12-26T11:46:40.797Z,101613.56
2018-12-26T11:47:46.847Z,101608.85
2018-12-26T11:48:52.833Z,101609.28
2018-12-26T11:49:58.769Z,101605.79
2018-12-26T11:51:04.414Z,101610.61
2018-12-26T11:52:10.483Z,101609.69
2018-12-26T11:53:17.681Z,101608.41
2018-12-26T11:54:23.726Z,101611.85
2018-12-26T11:55:29.740Z,101610.09
2018-12-26T11:56:35.740Z,101609.30
2018-12-26T11:57:41.669Z,101610.58
2018-12-26T11:58:47.648Z,101605.84
2018-12-26T11:59:53.661Z,101606.28
2018-12-26T12:00:59.657Z,101604.14
2018-12-26T12:02:05.278Z,101605.05
2018-12-26T12:03:11.256Z,101611.98
2018-12-26T12:04:16.855Z,101606.37
2018-12-26T12:05:22.515Z,101610.20
2018-12-26T12:06:28.456Z,101607.59
2018-12-26T12:07:34.449Z,101604.59
2018-12-26T12:08:39.798Z,101611.07
2018-12-26T12:09:45.492Z,101610.61
2018-12-26T12:10:51.509Z,101608.03
2018-12-26T12:11:57.481Z,101603.72
2018-12-26T12:13:03.480Z,101607.17
2018-12-26T12:14:09.110Z,101614.57
2018-12-26T12:15:14.729Z,101604.60
2018-12-26T12:16:20.673Z,101609.39
2018-12-26T12:17:26.681Z,101610.27
2018-12-26T12:18:32.726Z,101606.80
2018-12-26T12:19:38.672Z,101612.86
2018-12-26T12:20:44.641Z,101608.11
2018-12-26T12:21:50.341Z,101614.12
2018-12-26T12:22:55.584Z,101612.41
2018-12-26T12:24:01.584Z,101608.04
2018-12-26T12:25:07.231Z,101605.06
2018-12-26T12:26:13.215Z,101606.80
2018-12-26T12:27:19.342Z,101605.47
2018-12-26T12:28:25.451Z,101608.95
2018-12-26T12:29:35.888Z,101608.09
2018-12-26T12:30:37.458Z,101607.67
2018-12-26T12:31:43.458Z,101609.86
2018-12-26T12:32:49.474Z,101603.81
2018-12-26T12:33:54.843Z,101608.14